ADDS METAR Data INFO
IDs: Format: Raw Decoded Include TAF

Data at: 1145 UTC 23 Jun 2018

PARC 231056Z AUTO 18006KT 10SM OVC012 11/09 A2980 RMK AO2 RAE16 SLP116 P0000 T01060094
PARC 230956Z AUTO 20006KT 10SM -RA OVC012 11/10 A2980 RMK AO2 RAB02 SLP115 P0000 T01060100
PARC 230943Z AUTO 20007KT 10SM -RA OVC012 11/10 A2979 RMK AO2 RAB02 P0000
PARC 230856Z AUTO 16006KT 7SM OVC006 12/11 A2979 RMK AO2 CIG 004V008 SLP113 T01170111 52002
PARC 230839Z AUTO 17005KT 10SM OVC008 12/11 A2979 RMK AO2 CIG 006V010
PARC 230756Z AUTO 16007KT 10SM OVC010 12/11 A2979 RMK AO2 SLP110 T01170106 401720117
PARC 230714Z AUTO 16005KT 10SM BKN010 OVC029 12/11 A2979 RMK AO2
PARC 230656Z AUTO 16007KT 10SM OVC029 12/11 A2979 RMK AO2 SLP108 T01220106
PARC 230651Z AUTO 17007KT 10SM FEW024 OVC031 12/11 A2979 RMK AO2
PARC 230603Z AUTO 16008KT 10SM FEW010 SCT017 OVC022 12/11 A2978 RMK AO2
PARC 230556Z AUTO 18007KT 10SM BKN012 OVC020 12/11 A2978 RMK AO2 SLP106 60002 T01220111 10139 20122 53001
PARC 230456Z AUTO 17007KT 10SM OVC012 13/12 A2978 RMK AO2 RAE01 SLP106 P0000 T01280117
PARC 230424Z AUTO 14005KT 10SM BKN010 OVC015 13/12 A2978 RMK AO2 RAE01 CIG 009V013 P0000
PARC 230329Z AUTO 00000KT 8SM BKN009 OVC015 13/12 A2978 RMK AO2 RAE13 P0001
PARC 230236Z AUTO 33003KT 3SM -RA BR OVC014 13/12 A2978 RMK AO2 P0001
PARC 230228Z AUTO 33003KT 2SM -RA BR OVC016 13/12 A2978 RMK AO2 P0001
PARC 230156Z AUTO 32004KT 7SM -RA OVC018 13/12 A2978 RMK AO2 RAB15 SLP107 P0000 T01330122
PARC 230112Z AUTO 32004KT 10SM BKN022 OVC032 14/12 A2978 RMK AO2
PARC 230056Z AUTO 31004KT 10SM FEW018 OVC034 14/12 A2978 RMK AO2 RAE2359 SLP106 P0000 T01390122
PARC 230052Z AUTO 31004KT 10SM SCT018 OVC034 14/12 A2978 RMK AO2 RAE2359 P0000
PARC 222356Z AUTO 00000KT 10SM -RA BKN028 BKN036 OVC065 14/12 A2978 RMK AO2 SLP106 P0005 60021 T01390117 10172 20128 58001
PARC 222256Z AUTO 24003KT 10SM -RA FEW030 BKN037 OVC070 13/12 A2978 RMK AO2 SLP108 P0002 T01330122
PARC 222245Z AUTO 22004KT 8SM -RA SCT026 BKN035 OVC065 13/12 A2978 RMK AO2 P0001
PARC 222227Z AUTO 21004KT 10SM -RA BKN026 OVC065 13/12 A2978 RMK AO2 P0001
PARC 222156Z AUTO 00000KT 10SM -RA SCT049 BKN060 OVC075 13/12 A2978 RMK AO2 SLP107 P0007 T01330117
PARC 222056Z AUTO 10005KT 4SM RA BR BKN055 OVC075 13/12 A2978 RMK AO2 RAB09 SLP107 P0007 60007 T01280117 53005
PARC 221956Z AUTO 00000KT 10SM OVC060 17/09 A2976 RMK AO2 SLP098 T01720089
PARC 221856Z AUTO 00000KT 10SM OVC055 17/09 A2976 RMK AO2 SLP094 T01720094
PARC 221756Z AUTO 00000KT 10SM BKN070 16/09 A2976 RMK AO2 SLP096 T01610089 10161 20122 52002
PARC 221656Z AUTO 03006KT 10SM FEW110 15/09 A2976 RMK AO2 SLP096 T01500089
PARC 221556Z AUTO 04004KT 10SM OVC120 14/09 A2976 RMK AO2 SLP093 T01440094
PARC 221456Z AUTO 04006KT 10SM SCT110 14/09 A2976 RMK AO2 SLP093 T01390094 58009
PARC 221356Z AUTO 34006KT 10SM OVC120 13/08 A2978 RMK AO2 SLP100 T01330083
PARC 221256Z AUTO 34004KT 10SM FEW065 12/08 A2977 RMK AO2 SLP100 T01220083
PARC 221156Z AUTO 32004KT 10SM OVC110 13/09 A2978 RMK AO2 SLP103 T01280089 10172 20122 53002
PARC 221056Z AUTO 01007KT 10SM FEW075 OVC100 13/09 A2978 RMK AO2 SLP101 T01280094
PARC 220956Z AUTO 36007KT 10SM CLR 13/09 A2977 RMK AO2 SLP099 T01280089
PARC 220856Z AUTO 33007KT 10SM CLR 14/08 A2978 RMK AO2 SLP100 T01390083 50002
PARC 220656Z AUTO 01007KT 10SM CLR 16/08 A2978 RMK AO2 SLP100 T01560083
PARC 220556Z AUTO 32006KT 10SM CLR 17/07 A2977 RMK AO2 SLP098 T01720072 10222 20172 53006
PARC 220456Z AUTO 27013G19KT 10SM SCT065 18/07 A2976 RMK AO2 SLP095 T01830072
PARC 220356Z AUTO 08007KT 10SM CLR 21/07 A2975 RMK AO2 SLP091 T02060072
PARC 220256Z AUTO 04005KT 10SM SCT100 21/07 A2975 RMK AO2 SLP092 T02060072 56012
PARC 220156Z AUTO 01009KT 10SM FEW070 OVC100 21/07 A2976 RMK AO2 SLP094 T02110067
PARC 220056Z AUTO 01004KT 9SM BKN100 21/06 A2977 RMK AO2 SLP101 T02110061
PARC 212356Z AUTO 04005KT 10SM FEW090 SCT110 22/06 A2979 RMK AO2 SLP106 T02170056 10222 20178 58015